createdAt,value
2018-01-07T00:01:03.329Z,4.30
2018-01-07T00:03:30.844Z,4.30
2018-01-07T00:05:58.373Z,4.30
2018-01-07T00:08:26.674Z,4.30
2018-01-07T00:10:54.610Z,4.20
2018-01-07T00:13:22.111Z,4.20
2018-01-07T00:15:49.635Z,4.20
2018-01-07T00:18:17.151Z,4.10
2018-01-07T00:20:44.696Z,4.10
2018-01-07T00:23:12.178Z,4.00
2018-01-07T00:25:39.716Z,4.00
2018-01-07T00:28:07.252Z,4.00
2018-01-07T00:30:34.798Z,4.00
2018-01-07T00:33:02.345Z,4.00
2018-01-07T00:35:29.869Z,3.90
2018-01-07T00:37:57.631Z,3.90
2018-01-07T00:40:25.101Z,3.90
2018-01-07T00:42:52.591Z,3.80
2018-01-07T00:45:20.100Z,3.80
2018-01-07T00:47:47.577Z,3.70
2018-01-07T00:50:15.059Z,3.70
2018-01-07T00:52:42.589Z,3.60
2018-01-07T00:55:10.063Z,3.60
2018-01-07T00:57:37.562Z,3.60
2018-01-07T01:00:05.797Z,3.60
2018-01-07T01:02:33.278Z,3.50
2018-01-07T01:05:00.993Z,3.50
2018-01-07T01:07:28.533Z,3.60
2018-01-07T01:09:56.005Z,3.50
2018-01-07T01:12:23.525Z,3.50
2018-01-07T01:14:51.769Z,3.40
2018-01-07T01:17:19.247Z,3.40
2018-01-07T01:19:46.743Z,3.40
2018-01-07T01:22:14.210Z,3.30
2018-01-07T01:24:41.692Z,3.30
2018-01-07T01:27:09.171Z,3.40
2018-01-07T01:29:36.652Z,3.30
2018-01-07T01:32:04.895Z,3.30
2018-01-07T01:34:32.634Z,3.30
2018-01-07T01:37:00.126Z,3.20
2018-01-07T01:39:27.601Z,3.30
2018-01-07T01:41:55.094Z,3.30
2018-01-07T01:44:22.569Z,3.30
2018-01-07T01:46:50.052Z,3.20
2018-01-07T01:49:23.430Z,3.20
2018-01-07T01:51:50.930Z,3.20
2018-01-07T01:54:18.414Z,3.20
2018-01-07T01:56:46.653Z,3.20
2018-01-07T01:59:14.123Z,3.10
2018-01-07T02:01:41.614Z,3.10
2018-01-07T02:04:09.095Z,3.10
2018-01-07T02:06:36.577Z,3.10
2018-01-07T02:09:04.092Z,3.10
2018-01-07T02:11:31.599Z,3.10
2018-01-07T02:13:59.103Z,3.00
2018-01-07T02:16:26.636Z,3.00
2018-01-07T02:18:54.901Z,3.00
2018-01-07T02:21:22.393Z,3.00
2018-01-07T02:23:49.904Z,3.00
2018-01-07T02:26:17.404Z,3.00
2018-01-07T02:28:45.685Z,3.00
2018-01-07T02:31:13.970Z,2.90
2018-01-07T02:33:41.497Z,2.80
2018-01-07T02:36:09.081Z,2.90
2018-01-07T02:38:36.614Z,2.90
2018-01-07T02:41:04.090Z,2.90
2018-01-07T02:43:32.387Z,2.90
2018-01-07T02:45:59.856Z,2.90
2018-01-07T02:48:27.341Z,2.90
2018-01-07T02:50:54.811Z,2.90
2018-01-07T02:53:22.285Z,2.90
2018-01-07T02:55:49.762Z,2.90
2018-01-07T02:58:17.999Z,2.90
2018-01-07T03:00:45.478Z,2.80
2018-01-07T03:03:12.945Z,2.90
2018-01-07T03:05:41.205Z,2.90
2018-01-07T03:08:08.673Z,2.90
2018-01-07T03:10:36.153Z,2.90
2018-01-07T03:13:04.396Z,2.90
2018-01-07T03:15:31.880Z,2.90
2018-01-07T03:18:00.405Z,2.90
2018-01-07T03:20:27.874Z,2.80
2018-01-07T03:22:55.629Z,2.90
2018-01-07T03:25:23.095Z,2.90
2018-01-07T03:27:50.576Z,2.90
2018-01-07T03:30:18.043Z,2.90
2018-01-07T03:32:45.525Z,2.90
2018-01-07T03:35:13.758Z,2.90
2018-01-07T03:37:41.255Z,2.90
2018-01-07T03:40:09.486Z,3.00
2018-01-07T03:42:36.957Z,2.90
2018-01-07T03:45:04.440Z,3.00
2018-01-07T03:47:32.688Z,3.00
2018-01-07T03:50:00.165Z,3.00
2018-01-07T03:52:27.638Z,3.00
2018-01-07T03:54:55.108Z,3.00
2018-01-07T03:57:23.345Z,3.00
2018-01-07T03:59:50.845Z,3.00
2018-01-07T04:02:19.093Z,3.00
2018-01-07T04:04:46.560Z,3.00
2018-01-07T04:07:14.809Z,3.00
2018-01-07T04:09:42.285Z,3.00
2018-01-07T04:12:09.762Z,3.00
2018-01-07T04:14:37.998Z,3.00
2018-01-07T04:17:05.485Z,3.00
2018-01-07T04:19:33.734Z,3.00
2018-01-07T04:22:01.215Z,3.00
2018-01-07T04:24:28.680Z,3.00
2018-01-07T04:26:56.180Z,3.00
2018-01-07T04:29:23.960Z,2.90
2018-01-07T04:31:51.424Z,2.90
2018-01-07T04:34:18.901Z,2.90
2018-01-07T04:36:46.364Z,2.90
2018-01-07T04:39:14.093Z,2.90
2018-01-07T04:41:41.558Z,2.90
2018-01-07T04:44:09.033Z,2.90
2018-01-07T04:46:36.505Z,2.80
2018-01-07T04:49:03.964Z,2.90
2018-01-07T04:51:31.442Z,2.80
2018-01-07T04:53:59.677Z,2.80
2018-01-07T04:56:27.425Z,2.70
2018-01-07T04:58:55.189Z,2.70
2018-01-07T05:01:22.661Z,2.80
2018-01-07T05:03:50.124Z,2.70
2018-01-07T05:06:17.601Z,2.70
2018-01-07T05:08:45.072Z,2.70
2018-01-07T05:11:12.546Z,2.70
2018-01-07T05:13:41.062Z,2.70
2018-01-07T05:16:08.545Z,2.70
2018-01-07T05:18:36.014Z,2.60
2018-01-07T05:21:03.485Z,2.60
2018-01-07T05:23:30.961Z,2.60
2018-01-07T05:25:59.184Z,2.50
2018-01-07T05:28:26.669Z,2.50
2018-01-07T05:30:54.128Z,2.50
2018-01-07T05:33:21.608Z,2.50
2018-01-07T05:35:49.846Z,2.40
2018-01-07T05:38:17.304Z,2.40
2018-01-07T05:40:44.793Z,2.40
2018-01-07T05:43:12.502Z,2.40
2018-01-07T05:45:40.268Z,2.30
2018-01-07T05:48:07.737Z,2.30
2018-01-07T05:50:35.489Z,2.40
2018-01-07T05:53:02.953Z,2.40
2018-01-07T05:55:30.421Z,2.30
2018-01-07T05:57:57.905Z,2.30
2018-01-07T06:00:25.377Z,2.20
2018-01-07T06:02:52.840Z,2.30
2018-01-07T06:05:21.076Z,2.30
2018-01-07T06:07:48.556Z,2.30
2018-01-07T06:10:16.023Z,2.30
2018-01-07T06:12:43.512Z,2.20
2018-01-07T06:15:11.748Z,2.20
2018-01-07T06:17:39.208Z,2.20
2018-01-07T06:20:06.936Z,2.20
2018-01-07T06:22:34.406Z,2.30
2018-01-07T06:25:01.889Z,2.20
2018-01-07T06:27:29.363Z,2.20
2018-01-07T06:29:56.832Z,2.20
2018-01-07T06:32:25.065Z,2.20
2018-01-07T06:34:52.536Z,2.20
2018-01-07T06:37:20.009Z,2.20
2018-01-07T06:39:47.484Z,2.20
2018-01-07T06:42:15.714Z,2.20
2018-01-07T06:44:43.181Z,2.10
2018-01-07T06:47:10.648Z,2.20
2018-01-07T06:49:38.130Z,2.20
2018-01-07T06:52:06.377Z,2.20
2018-01-07T06:54:33.846Z,2.20
2018-01-07T06:57:01.342Z,2.20
2018-01-07T06:59:28.837Z,2.20
2018-01-07T07:01:56.322Z,2.20
2018-01-07T07:04:23.799Z,2.20
2018-01-07T07:06:52.044Z,2.20
2018-01-07T07:09:19.521Z,2.20
2018-01-07T07:11:46.990Z,2.20
2018-01-07T07:14:14.458Z,2.20
2018-01-07T07:16:41.938Z,2.20
2018-01-07T07:19:09.420Z,2.20
2018-01-07T07:21:36.893Z,2.20
2018-01-07T07:24:04.360Z,2.30
2018-01-07T07:26:31.829Z,2.30
2018-01-07T07:28:59.301Z,2.30
2018-01-07T07:31:27.533Z,2.30
2018-01-07T07:33:55.769Z,2.30
2018-01-07T07:36:23.245Z,2.30
2018-01-07T07:38:50.733Z,2.30
2018-01-07T07:41:18.205Z,2.30
2018-01-07T07:43:45.664Z,2.30
2018-01-07T07:46:13.387Z,2.30
2018-01-07T07:48:40.857Z,2.30
2018-01-07T07:51:08.333Z,2.30
2018-01-07T07:53:35.843Z,2.30
2018-01-07T07:56:03.303Z,2.30
2018-01-07T07:58:30.763Z,2.40
2018-01-07T08:00:58.242Z,2.40
2018-01-07T08:03:25.713Z,2.30
2018-01-07T08:05:53.190Z,2.40
2018-01-07T08:08:20.661Z,2.40
2018-01-07T08:10:48.378Z,2.40
2018-01-07T08:13:15.853Z,2.40
2018-01-07T08:15:43.325Z,2.40
2018-01-07T08:18:10.805Z,2.40
2018-01-07T08:20:39.052Z,2.40
2018-01-07T08:23:06.533Z,2.40
2018-01-07T08:25:34.000Z,2.40
2018-01-07T08:28:02.242Z,2.40
2018-01-07T08:30:29.709Z,2.40
2018-01-07T08:32:57.185Z,2.40
2018-01-07T08:35:24.658Z,2.40
2018-01-07T08:37:53.173Z,2.40
2018-01-07T08:40:20.648Z,2.40
2018-01-07T08:42:48.117Z,2.40
2018-01-07T08:45:15.589Z,2.40
2018-01-07T08:47:43.061Z,2.40
2018-01-07T08:50:10.533Z,2.50
2018-01-07T08:52:38.757Z,2.40
2018-01-07T08:55:06.249Z,2.40
2018-01-07T08:57:33.713Z,2.50
2018-01-07T09:00:01.184Z,2.50
2018-01-07T09:02:29.425Z,2.50
2018-01-07T09:04:56.884Z,2.50
2018-01-07T09:07:24.365Z,2.60
2018-01-07T09:09:52.615Z,2.60
2018-01-07T09:12:20.085Z,2.60
2018-01-07T09:14:47.556Z,2.50
2018-01-07T09:17:15.029Z,2.50
2018-01-07T09:19:43.261Z,2.50
2018-01-07T09:22:10.741Z,2.50
2018-01-07T09:24:38.209Z,2.50
2018-01-07T09:27:05.697Z,2.50
2018-01-07T09:29:33.162Z,2.60
2018-01-07T09:32:00.628Z,2.50
2018-01-07T09:34:28.109Z,2.50
2018-01-07T09:36:55.573Z,2.50
2018-01-07T09:39:23.042Z,2.50
2018-01-07T09:41:50.513Z,2.50
2018-01-07T09:44:17.984Z,2.60
2018-01-07T09:46:46.214Z,2.60
2018-01-07T09:49:13.689Z,2.60
2018-01-07T09:51:41.154Z,2.70
2018-01-07T09:54:08.643Z,2.70
2018-01-07T09:56:36.872Z,2.70
2018-01-07T09:59:04.342Z,2.70
2018-01-07T10:01:31.817Z,2.70
2018-01-07T10:03:59.301Z,2.70
2018-01-07T10:06:26.769Z,2.60
2018-01-07T10:08:54.235Z,2.60
2018-01-07T10:11:21.708Z,2.60
2018-01-07T10:13:49.176Z,2.60
2018-01-07T10:16:16.648Z,2.70
2018-01-07T10:18:44.108Z,2.60
2018-01-07T10:21:11.754Z,2.60
2018-01-07T10:23:39.984Z,2.40
2018-01-07T10:26:07.445Z,2.40
2018-01-07T10:28:34.912Z,2.50
2018-01-07T10:31:02.408Z,2.60
2018-01-07T10:33:29.885Z,2.50
2018-01-07T10:35:57.605Z,2.50
2018-01-07T10:38:25.078Z,2.50
2018-01-07T10:40:52.533Z,2.50
2018-01-07T10:43:20.004Z,2.50
2018-01-07T10:45:47.469Z,2.60
2018-01-07T10:48:14.953Z,2.60
2018-01-07T10:50:42.412Z,2.70
2018-01-07T10:53:10.117Z,2.80
2018-01-07T10:55:37.598Z,2.80
2018-01-07T10:58:05.069Z,2.80
2018-01-07T11:00:38.193Z,2.80
2018-01-07T11:03:06.433Z,2.90
2018-01-07T11:05:33.900Z,2.90
2018-01-07T11:08:01.366Z,2.90
2018-01-07T11:10:28.832Z,2.90
2018-01-07T11:12:57.061Z,3.20
2018-01-07T11:15:24.540Z,3.10
2018-01-07T11:17:52.056Z,3.10
2018-01-07T11:20:20.265Z,3.20
2018-01-07T11:22:47.733Z,3.20
2018-01-07T11:25:15.222Z,3.30
2018-01-07T11:27:43.457Z,3.20
2018-01-07T11:30:10.929Z,3.20
2018-01-07T11:32:38.397Z,3.20
2018-01-07T11:35:05.861Z,3.10
2018-01-07T11:37:33.333Z,3.20
2018-01-07T11:40:01.558Z,3.10
2018-01-07T11:42:29.036Z,3.10
2018-01-07T11:44:56.493Z,3.00
2018-01-07T11:47:23.967Z,2.90
2018-01-07T11:49:51.428Z,2.90
2018-01-07T11:52:18.893Z,2.80
2018-01-07T11:54:46.365Z,2.80
2018-01-07T11:57:14.639Z,2.90
2018-01-07T11:59:42.876Z,3.00
2018-01-07T12:02:10.337Z,2.90
2018-01-07T12:04:37.813Z,2.90
2018-01-07T12:07:05.285Z,2.90
2018-01-07T12:09:33.584Z,2.90
2018-01-07T12:12:01.046Z,2.90
2018-01-07T12:14:28.508Z,2.90
2018-01-07T12:16:56.282Z,2.90
2018-01-07T12:19:23.745Z,2.80
2018-01-07T12:21:51.218Z,2.90
2018-01-07T12:24:18.676Z,2.90
2018-01-07T12:26:46.157Z,2.90
2018-01-07T12:29:13.625Z,2.90
2018-01-07T12:31:41.092Z,2.90
2018-01-07T12:34:09.371Z,2.90
2018-01-07T12:36:37.614Z,3.00
2018-01-07T12:39:05.078Z,3.00
2018-01-07T12:41:32.546Z,2.90
2018-01-07T12:44:00.037Z,2.90
2018-01-07T12:46:27.501Z,2.90
2018-01-07T12:48:54.981Z,2.90
2018-01-07T12:51:22.440Z,2.90
2018-01-07T12:53:49.913Z,2.90
2018-01-07T12:56:17.376Z,3.00
2018-01-07T12:58:44.854Z,2.90
2018-01-07T13:01:12.328Z,2.90
2018-01-07T13:03:40.561Z,2.90
2018-01-07T13:06:08.071Z,2.80
2018-01-07T13:08:36.350Z,2.80
2018-01-07T13:11:04.658Z,2.90
2018-01-07T13:13:32.166Z,2.80
2018-01-07T13:15:59.670Z,2.80
2018-01-07T13:18:27.161Z,2.80
2018-01-07T13:20:54.711Z,2.80
2018-01-07T13:23:22.273Z,2.80
2018-01-07T13:25:49.906Z,2.70
2018-01-07T13:28:18.135Z,2.60
2018-01-07T13:30:45.646Z,2.60
2018-01-07T13:33:13.150Z,2.70
2018-01-07T13:35:40.693Z,2.60
2018-01-07T13:38:08.228Z,2.60
2018-01-07T13:40:35.827Z,2.70
2018-01-07T13:43:03.325Z,2.70
2018-01-07T13:45:30.823Z,2.70
2018-01-07T13:47:58.395Z,2.70
2018-01-07T13:50:25.913Z,2.70
2018-01-07T13:52:53.420Z,2.70
2018-01-07T13:55:20.939Z,2.70
2018-01-07T13:57:48.495Z,2.70
2018-01-07T14:00:15.999Z,2.60
2018-01-07T14:02:43.530Z,2.60
2018-01-07T14:05:11.052Z,2.60
2018-01-07T14:07:39.670Z,2.50
2018-01-07T14:10:07.191Z,2.50
2018-01-07T14:12:35.466Z,2.60
2018-01-07T14:15:03.739Z,2.60
2018-01-07T14:17:32.034Z,2.50
2018-01-07T14:19:59.615Z,2.50
2018-01-07T14:22:27.159Z,2.60
2018-01-07T14:24:54.657Z,2.50
2018-01-07T14:27:22.191Z,2.40
2018-01-07T14:29:49.723Z,2.50
2018-01-07T14:32:18.244Z,2.40
2018-01-07T14:34:45.784Z,2.40
2018-01-07T14:37:13.397Z,2.40
2018-01-07T14:39:40.921Z,2.40
2018-01-07T14:42:08.495Z,2.40
2018-01-07T14:44:36.041Z,2.40
2018-01-07T14:47:03.545Z,2.30
2018-01-07T14:49:31.043Z,2.30
2018-01-07T14:51:58.561Z,2.30
2018-01-07T14:54:26.058Z,2.20
2018-01-07T14:56:53.648Z,2.30
2018-01-07T14:59:21.177Z,2.20
2018-01-07T15:01:48.770Z,2.20
2018-01-07T15:04:17.132Z,2.20
2018-01-07T15:06:44.688Z,2.20
2018-01-07T15:09:12.228Z,2.20
2018-01-07T15:11:40.568Z,2.10
2018-01-07T15:14:08.181Z,2.00
2018-01-07T15:16:35.700Z,2.00
2018-01-07T15:19:03.255Z,2.00
2018-01-07T15:21:30.800Z,2.00
2018-01-07T15:23:58.347Z,1.90
2018-01-07T15:26:25.848Z,1.90
2018-01-07T15:28:53.670Z,1.90
2018-01-07T15:31:21.198Z,1.90
2018-01-07T15:33:48.694Z,1.80
2018-01-07T15:36:16.244Z,1.80
2018-01-07T15:38:43.774Z,1.70
2018-01-07T15:41:11.346Z,1.70
2018-01-07T15:43:38.893Z,1.70
2018-01-07T15:46:07.262Z,1.70
2018-01-07T15:48:34.819Z,1.60
2018-01-07T15:51:03.143Z,1.70
2018-01-07T15:53:30.712Z,1.60
2018-01-07T15:55:58.323Z,1.70
2018-01-07T15:58:26.631Z,1.60
2018-01-07T16:00:54.137Z,1.60
2018-01-07T16:03:21.692Z,1.70
2018-01-07T16:05:50.056Z,1.60
2018-01-07T16:08:17.601Z,1.60
2018-01-07T16:10:45.140Z,1.60
2018-01-07T16:13:12.739Z,1.60
2018-01-07T16:15:40.286Z,1.60
2018-01-07T16:18:07.854Z,1.60
2018-01-07T16:20:35.378Z,1.50
2018-01-07T16:23:02.945Z,1.50
2018-01-07T16:25:30.512Z,1.50
2018-01-07T16:27:58.084Z,1.50
2018-01-07T16:30:25.649Z,1.50
2018-01-07T16:32:53.526Z,1.60
2018-01-07T16:35:21.098Z,1.50
2018-01-07T16:37:48.659Z,1.50
2018-01-07T16:40:16.182Z,1.50
2018-01-07T16:42:43.738Z,1.50
2018-01-07T16:45:11.241Z,1.60
2018-01-07T16:47:38.810Z,1.60
2018-01-07T16:50:06.347Z,1.60
2018-01-07T16:52:33.854Z,1.70
2018-01-07T16:55:02.224Z,1.70
2018-01-07T16:57:30.574Z,1.70
2018-01-07T16:59:58.178Z,1.70
2018-01-07T17:02:25.713Z,1.70
2018-01-07T17:04:53.296Z,1.60
2018-01-07T17:07:20.840Z,1.60
2018-01-07T17:09:48.376Z,1.60
2018-01-07T17:12:16.000Z,1.70
2018-01-07T17:14:43.518Z,1.80
2018-01-07T17:17:11.129Z,1.70
2018-01-07T17:19:38.638Z,1.60
2018-01-07T17:22:06.161Z,1.60
2018-01-07T17:24:33.729Z,1.70
2018-01-07T17:27:01.288Z,1.50
2018-01-07T17:29:28.862Z,1.50
2018-01-07T17:31:56.471Z,1.60
2018-01-07T17:34:24.089Z,1.50
2018-01-07T17:36:51.646Z,1.50
2018-01-07T17:39:19.222Z,1.40
2018-01-07T17:41:46.796Z,1.40
2018-01-07T17:44:15.109Z,1.30
2018-01-07T17:46:42.680Z,1.30
2018-01-07T17:49:10.237Z,1.40
2018-01-07T17:51:37.776Z,1.30
2018-01-07T17:54:05.378Z,1.30
2018-01-07T17:56:33.237Z,1.30
2018-01-07T17:59:00.846Z,1.20
2018-01-07T18:01:29.239Z,1.10
2018-01-07T18:03:56.847Z,1.10
2018-01-07T18:06:24.430Z,1.10
2018-01-07T18:08:52.832Z,1.10
2018-01-07T18:11:20.389Z,1.00
2018-01-07T18:13:48.724Z,1.10
2018-01-07T18:16:16.369Z,1.10
2018-01-07T18:18:43.924Z,1.10
2018-01-07T18:21:11.514Z,1.10
2018-01-07T18:23:39.062Z,1.10
2018-01-07T18:26:06.720Z,1.10
2018-01-07T18:28:34.624Z,1.00
2018-01-07T18:31:02.302Z,1.00
2018-01-07T18:33:30.667Z,1.00
2018-01-07T18:35:59.001Z,0.90
2018-01-07T18:38:26.568Z,0.90
2018-01-07T18:40:54.190Z,0.90
2018-01-07T18:43:22.560Z,0.90
2018-01-07T18:45:50.918Z,0.80
2018-01-07T18:48:18.513Z,0.80
2018-01-07T18:50:46.074Z,0.80
2018-01-07T18:53:13.638Z,0.90
2018-01-07T18:55:41.265Z,0.90
2018-01-07T18:58:08.876Z,1.00
2018-01-07T19:00:36.473Z,1.00
2018-01-07T19:03:04.058Z,0.90
2018-01-07T19:05:32.461Z,1.00
2018-01-07T19:08:00.101Z,0.90
2018-01-07T19:10:28.489Z,1.00
2018-01-07T19:12:56.101Z,1.00
2018-01-07T19:15:23.695Z,1.10
2018-01-07T19:17:52.081Z,1.10
2018-01-07T19:20:20.457Z,1.10
2018-01-07T19:22:48.022Z,1.10
2018-01-07T19:25:16.364Z,1.10
2018-01-07T19:27:44.032Z,1.10
2018-01-07T19:30:11.655Z,1.20
2018-01-07T19:32:39.225Z,1.20
2018-01-07T19:35:06.817Z,1.20
2018-01-07T19:37:34.453Z,1.20
2018-01-07T19:40:02.000Z,1.20
2018-01-07T19:42:29.600Z,1.30
2018-01-07T19:44:57.173Z,1.30
2018-01-07T19:47:24.809Z,1.20
2018-01-07T19:49:53.153Z,1.30
2018-01-07T19:52:20.801Z,1.20
2018-01-07T19:54:51.184Z,1.30
2018-01-07T19:57:18.823Z,1.30
2018-01-07T19:59:46.398Z,1.30
2018-01-07T20:02:14.024Z,1.30
2018-01-07T20:04:41.585Z,1.20
2018-01-07T20:07:09.124Z,1.30
2018-01-07T20:09:37.490Z,1.30
2018-01-07T20:12:05.056Z,1.20
2018-01-07T20:14:32.653Z,1.30
2018-01-07T20:17:00.214Z,1.30
2018-01-07T20:19:27.767Z,1.30
2018-01-07T20:21:55.283Z,1.30
2018-01-07T20:24:22.808Z,1.20
2018-01-07T20:26:50.333Z,1.20
2018-01-07T20:29:18.623Z,1.20
2018-01-07T20:31:46.153Z,1.20
2018-01-07T20:34:13.664Z,1.20
2018-01-07T20:36:41.183Z,1.20
2018-01-07T20:39:08.691Z,1.20
2018-01-07T20:41:36.212Z,1.20
2018-01-07T20:44:04.509Z,1.20
2018-01-07T20:46:32.025Z,1.20
2018-01-07T20:48:59.550Z,1.20
2018-01-07T20:51:27.068Z,1.20
2018-01-07T20:53:55.361Z,1.20
2018-01-07T20:56:22.872Z,1.20
2018-01-07T20:58:50.404Z,1.20
2018-01-07T21:01:18.178Z,1.20
2018-01-07T21:03:45.712Z,1.20
2018-01-07T21:06:13.241Z,1.20
2018-01-07T21:08:40.758Z,1.20
2018-01-07T21:11:08.293Z,1.20
2018-01-07T21:13:35.808Z,1.20
2018-01-07T21:16:03.640Z,1.20
2018-01-07T21:18:31.151Z,1.20
2018-01-07T21:20:59.685Z,1.20
2018-01-07T21:23:27.200Z,1.20
2018-01-07T21:25:55.496Z,1.20
2018-01-07T21:28:23.013Z,1.20
2018-01-07T21:30:50.533Z,1.20
2018-01-07T21:33:18.065Z,1.20
2018-01-07T21:35:46.343Z,1.20
2018-01-07T21:38:13.872Z,1.20
2018-01-07T21:40:41.391Z,1.20
2018-01-07T21:43:08.925Z,1.30
2018-01-07T21:45:36.448Z,1.20
2018-01-07T21:48:03.983Z,1.30
2018-01-07T21:50:31.740Z,1.30
2018-01-07T21:53:00.324Z,1.20
2018-01-07T21:55:27.834Z,1.20
2018-01-07T21:57:56.110Z,1.20
2018-01-07T22:00:44.348Z,1.20
2018-01-07T22:03:24.404Z,1.20
2018-01-07T22:05:55.369Z,1.30
2018-01-07T22:08:22.888Z,1.20
2018-01-07T22:10:50.420Z,1.30
2018-01-07T22:13:18.705Z,1.30
2018-01-07T22:15:46.276Z,1.30
2018-01-07T22:18:13.764Z,1.30
2018-01-07T22:20:42.062Z,1.30
2018-01-07T22:23:09.577Z,1.30
2018-01-07T22:25:37.119Z,1.30
2018-01-07T22:28:04.644Z,1.30
2018-01-07T22:30:32.168Z,1.30
2018-01-07T22:32:59.688Z,1.30
2018-01-07T22:35:27.209Z,1.30
2018-01-07T22:37:55.499Z,1.30
2018-01-07T22:40:23.016Z,1.30
2018-01-07T22:42:50.549Z,1.30
2018-01-07T22:45:18.415Z,1.30
2018-01-07T22:47:51.776Z,1.30
2018-01-07T22:50:19.301Z,1.30
2018-01-07T22:52:46.822Z,1.30
2018-01-07T22:55:14.343Z,1.40
2018-01-07T22:57:42.623Z,1.30
2018-01-07T23:00:10.152Z,1.30
2018-01-07T23:02:37.672Z,1.30
2018-01-07T23:05:05.201Z,1.30
2018-01-07T23:07:33.501Z,1.30
2018-01-07T23:10:01.032Z,1.30
2018-01-07T23:12:29.316Z,1.40
2018-01-07T23:14:56.844Z,1.40
2018-01-07T23:17:24.368Z,1.40
2018-01-07T23:19:51.911Z,1.40
2018-01-07T23:22:19.426Z,1.40
2018-01-07T23:24:46.903Z,1.40
2018-01-07T23:27:15.188Z,1.40
2018-01-07T23:29:42.694Z,1.40
2018-01-07T23:32:10.971Z,1.40
2018-01-07T23:34:38.496Z,1.40
2018-01-07T23:37:06.024Z,1.40
2018-01-07T23:39:34.303Z,1.30
2018-01-07T23:42:02.591Z,1.30
2018-01-07T23:44:30.836Z,1.40
2018-01-07T23:46:58.354Z,1.40
2018-01-07T23:49:25.879Z,1.30
2018-01-07T23:51:53.407Z,1.40
2018-01-07T23:54:20.910Z,1.40
2018-01-07T23:56:49.141Z,1.30
2018-01-07T23:59:16.661Z,1.30
